Time;durP1;ratioP1;P1;durP2;ratioP2;P2;SDS_P1;SDS_P2;PMS_P1;PMS_P2;Temp;Humidity;BMP_temperature;BMP_pressure;BME280_temperature;BME280_humidity;BME280_pressure;Samples;Min_cycle;Max_cycle;Signal;HPM_P1;HPM_P2
2022/07/11 00:01:47;;;;;;;3.08;1.20;;;;;;;13.45;63.89;98668.84;5091509;28;20039;-75
2022/07/11 00:04:13;;;;;;;3.72;1.17;;;;;;;13.43;64.14;98677.44;5091718;28;20674;-75
2022/07/11 00:06:38;;;;;;;5.63;1.40;;;;;;;13.38;64.31;98669.25;5091382;28;20035;-76
2022/07/11 00:09:04;;;;;;;4.15;1.48;;;;;;;13.36;64.25;98665.97;5090546;28;20020;-75
2022/07/11 00:11:29;;;;;;;5.10;2.22;;;;;;;13.36;64.30;98665.97;5091130;28;20384;-75
2022/07/11 00:13:55;;;;;;;4.65;1.77;;;;;;;13.36;64.27;98665.97;5092141;28;20464;-74
2022/07/11 00:16:21;;;;;;;10.73;5.07;;;;;;;13.36;64.03;98665.97;5092862;28;20032;-75
2022/07/11 00:18:46;;;;;;;5.35;2.60;;;;;;;13.34;64.32;98670.97;5090888;28;20142;-75
2022/07/11 00:21:11;;;;;;;6.45;1.70;;;;;;;13.31;64.42;98663.34;5091329;28;20057;-75
2022/07/11 00:23:37;;;;;;;1.98;1.27;;;;;;;13.31;64.55;98671.59;5091365;28;20023;-75
2022/07/11 00:26:03;;;;;;;5.97;1.55;;;;;;;13.31;64.54;98668.84;5091237;28;20439;-78
2022/07/11 00:28:29;;;;;;;2.83;1.15;;;;;;;13.29;64.23;98671.88;5091243;28;20032;-78
2022/07/11 00:30:54;;;;;;;5.20;1.60;;;;;;;13.31;64.42;98666.09;5091026;28;20094;-78
2022/07/11 00:33:20;;;;;;;4.25;1.52;;;;;;;13.32;64.39;98663.00;5091367;28;20460;-78
2022/07/11 00:35:45;;;;;;;3.70;1.60;;;;;;;13.33;64.30;98670.16;5091149;28;20464;-78
2022/07/11 00:38:11;;;;;;;5.25;1.70;;;;;;;13.33;64.53;98672.09;5088554;28;20088;-77
2022/07/11 00:40:36;;;;;;;6.20;1.70;;;;;;;13.33;65.58;98670.16;5091198;28;20051;-77
2022/07/11 00:43:05;;;;;;;3.85;1.45;;;;;;;13.30;64.47;98670.75;5091259;28;20058;-77
2022/07/11 00:45:32;;;;;;;6.82;2.05;;;;;;;13.32;64.97;98671.28;5090876;28;20093;-78
2022/07/11 00:47:58;;;;;;;4.85;1.67;;;;;;;13.34;65.00;98674.53;5091163;28;20563;-77
2022/07/11 00:50:25;;;;;;;4.53;1.60;;;;;;;13.37;64.69;98673.13;5090494;28;20107;-77
2022/07/11 00:52:55;;;;;;;3.97;1.60;;;;;;;13.42;65.19;98673.03;5090727;28;20024;-78
2022/07/11 00:55:22;;;;;;;4.15;1.80;;;;;;;13.42;64.83;98667.53;5088651;28;20020;-78
2022/07/11 00:57:50;;;;;;;3.58;1.60;;;;;;;13.42;65.08;98659.25;5090653;28;20016;-77
2022/07/11 01:00:17;;;;;;;5.93;1.80;;;;;;;13.40;64.77;98659.53;5090615;28;20057;-78
2022/07/11 01:02:44;;;;;;;4.70;1.90;;;;;;;13.44;65.36;98667.22;5090454;28;20044;-77
2022/07/11 01:05:09;;;;;;;5.55;1.70;;;;;;;13.44;65.02;98657.00;5087288;28;20492;-77
2022/07/11 01:07:35;;;;;;;5.53;2.00;;;;;;;13.44;64.90;98668.03;5089474;28;20498;-77
2022/07/11 01:10:00;;;;;;;5.55;2.10;;;;;;;13.44;64.86;98665.28;5089045;28;20067;-78
2022/07/11 01:12:26;;;;;;;4.07;1.88;;;;;;;13.42;65.17;98659.25;5089860;28;20028;-78
2022/07/11 01:14:53;;;;;;;5.43;2.22;;;;;;;13.41;64.80;98663.16;5090390;28;20507;-78
2022/07/11 01:17:19;;;;;;;5.78;2.05;;;;;;;13.45;65.20;98666.09;5089489;28;20127;-77
2022/07/11 01:19:44;;;;;;;3.92;1.88;;;;;;;13.45;65.11;98658.63;5089275;28;20744;-77
2022/07/11 01:22:13;;;;;;;4.72;1.70;;;;;;;13.43;64.88;98660.06;5090187;28;20522;-78
2022/07/11 01:24:39;;;;;;;7.13;2.28;;;;;;;13.42;64.92;98661.19;5089812;28;20031;-77
2022/07/11 01:27:05;;;;;;;5.35;1.67;;;;;;;13.43;64.78;98662.81;5089992;28;20081;-78
2022/07/11 01:29:30;;;;;;;6.22;1.90;;;;;;;13.43;64.81;98663.66;5090107;28;21198;-77
2022/07/11 01:31:56;;;;;;;4.45;1.70;;;;;;;13.43;64.75;98669.16;5090524;28;20030;-77
2022/07/11 01:34:21;;;;;;;4.85;1.80;;;;;;;13.43;65.18;98660.91;5090121;28;20024;-77
2022/07/11 01:36:47;;;;;;;3.50;1.80;;;;;;;13.44;65.23;98659.78;5090623;28;20055;-77
2022/07/11 01:39:12;;;;;;;4.35;2.03;;;;;;;13.41;64.92;98663.16;5090262;28;20024;-77
2022/07/11 01:41:38;;;;;;;3.72;2.00;;;;;;;13.38;65.29;98661.78;5090449;28;20424;-78
2022/07/11 01:44:03;;;;;;;4.22;1.70;;;;;;;13.35;64.82;98656.88;5090508;28;20020;-78
2022/07/11 01:46:29;;;;;;;4.68;1.60;;;;;;;13.38;65.33;98658.22;5090520;28;20081;-77
2022/07/11 01:48:54;;;;;;;4.38;1.50;;;;;;;13.37;65.26;98654.63;5090346;28;20027;-77
2022/07/11 01:51:20;;;;;;;4.10;1.60;;;;;;;13.37;65.35;98648.31;5089647;28;20357;-78
2022/07/11 01:53:45;;;;;;;2.58;1.52;;;;;;;13.34;65.25;98641.47;5090435;28;20055;-77
2022/07/11 01:56:11;;;;;;;5.20;1.67;;;;;;;13.33;65.17;98639.84;5090350;28;20031;-77
2022/07/11 01:58:36;;;;;;;4.60;1.50;;;;;;;13.33;66.06;98637.09;5090521;28;20024;-77
2022/07/11 02:01:02;;;;;;;3.45;1.67;;;;;;;13.26;65.40;98628.44;5089981;28;20031;-78
2022/07/11 02:03:27;;;;;;;5.93;2.20;;;;;;;13.28;65.36;98630.91;5090028;28;20411;-77
2022/07/11 02:05:53;;;;;;;3.58;1.55;;;;;;;13.29;65.49;98629.78;5089898;28;20047;-78
2022/07/11 02:08:18;;;;;;;4.05;1.77;;;;;;;13.26;65.70;98631.19;5090100;28;20024;-77
2022/07/11 02:10:46;;;;;;;5.03;1.98;;;;;;;13.24;65.72;98631.50;5089498;28;20109;-76
2022/07/11 02:13:13;;;;;;;4.20;1.80;;;;;;;13.24;65.28;98630.72;5089743;28;20047;-75
2022/07/11 02:15:40;;;;;;;4.20;1.70;;;;;;;13.24;65.16;98630.72;5090041;28;20062;-75
2022/07/11 02:18:06;;;;;;;4.07;2.10;;;;;;;13.23;65.38;98629.09;5089587;28;20035;-76
2022/07/11 02:20:32;;;;;;;3.97;1.70;;;;;;;13.23;65.50;98634.59;5089663;28;20093;-76
2022/07/11 02:22:58;;;;;;;6.18;1.95;;;;;;;13.21;65.24;98631.34;5089837;28;20058;-77
2022/07/11 02:25:23;;;;;;;4.63;1.70;;;;;;;13.20;65.57;98635.22;5089579;28;20239;-76
2022/07/11 02:27:50;;;;;;;5.50;1.80;;;;;;;13.21;65.43;98631.34;5089737;28;20515;-75
2022/07/11 02:30:15;;;;;;;5.90;1.58;;;;;;;13.20;65.45;98636.00;5089308;28;20501;-76
2022/07/11 02:32:41;;;;;;;4.60;1.80;;;;;;;13.22;65.22;98641.22;5091513;28;20041;-80
2022/07/11 02:35:06;;;;;;;3.08;1.83;;;;;;;13.22;65.43;98638.47;5094045;28;20024;-79
2022/07/11 02:37:32;;;;;;;6.00;2.10;;;;;;;13.20;65.58;98635.22;5093911;28;20559;-79
2022/07/11 02:39:57;;;;;;;4.45;1.90;;;;;;;13.18;65.42;98638.25;5093896;28;20472;-78
2022/07/11 02:42:23;;;;;;;3.42;1.75;;;;;;;13.21;65.75;98645.09;5075225;28;20119;-76
2022/07/11 02:44:48;;;;;;;5.35;1.77;;;;;;;13.21;65.88;98647.84;5093340;28;20111;-76
2022/07/11 02:47:14;;;;;;;5.93;1.75;;;;;;;13.20;65.84;98641.50;5093058;28;20092;-75
2022/07/11 02:49:40;;;;;;;3.95;1.80;;;;;;;13.20;65.83;98637.97;5093644;28;20528;-76
2022/07/11 02:52:06;;;;;;;3.40;1.63;;;;;;;13.20;66.12;98643.47;5092525;28;20100;-76
2022/07/11 02:54:31;;;;;;;5.38;1.60;;;;;;;13.15;66.66;98643.59;5089783;28;20032;-76
2022/07/11 02:56:57;;;;;;;6.30;1.67;;;;;;;13.10;66.38;98641.72;5093166;28;20036;-76
2022/07/11 02:59:22;;;;;;;3.72;1.50;;;;;;;13.10;66.59;98647.25;5092546;28;20035;-75
2022/07/11 03:01:48;;;;;;;3.80;1.38;;;;;;;13.10;66.29;98650.00;5092697;28;20053;-76
2022/07/11 03:04:14;;;;;;;4.30;1.77;;;;;;;13.12;66.40;98649.69;5092297;28;20034;-76
2022/07/11 03:06:39;;;;;;;4.78;2.20;;;;;;;13.12;66.75;98646.94;5092560;28;20392;-76
2022/07/11 03:09:07;;;;;;;5.35;1.85;;;;;;;13.11;66.81;98651.63;5092921;28;20066;-76
2022/07/11 03:11:33;;;;;;;3.83;1.48;;;;;;;13.10;66.70;98658.25;5092267;28;20036;-77
2022/07/11 03:14:00;;;;;;;4.90;1.63;;;;;;;13.11;66.66;98657.13;5073508;28;20038;-77
2022/07/11 03:16:29;;;;;;;4.68;1.70;;;;;;;13.15;66.97;98654.59;5092627;28;20024;-77
2022/07/11 03:18:56;;;;;;;5.32;1.40;;;;;;;13.17;66.35;98658.66;5092853;28;20443;-76
2022/07/11 03:21:21;;;;;;;6.68;1.60;;;;;;;13.20;67.07;98657.25;5091724;28;20024;-77
2022/07/11 03:23:47;;;;;;;4.97;1.50;;;;;;;13.22;66.84;98660.50;5091882;28;20441;-76
2022/07/11 03:26:12;;;;;;;4.30;1.50;;;;;;;13.27;66.59;98654.06;5091976;28;20480;-74
2022/07/11 03:28:38;;;;;;;3.85;1.35;;;;;;;13.28;66.78;98659.25;5092133;28;20051;-73
2022/07/11 03:31:03;;;;;;;4.32;1.27;;;;;;;13.27;67.32;98649.34;5092065;28;20032;-76
2022/07/11 03:33:29;;;;;;;5.78;1.17;;;;;;;13.30;67.01;98665.25;5091136;28;20120;-77
2022/07/11 03:35:55;;;;;;;4.43;1.40;;;;;;;13.28;66.96;98653.72;5092679;28;20020;-76
2022/07/11 03:38:21;;;;;;;4.85;1.40;;;;;;;13.30;66.53;98650.69;5092134;28;20441;-76
2022/07/11 03:40:47;;;;;;;4.78;1.58;;;;;;;13.30;67.07;98656.19;5092241;28;20099;-76
2022/07/11 03:43:13;;;;;;;3.53;1.23;;;;;;;13.29;67.18;98660.88;5090300;28;20026;-76
2022/07/11 03:45:39;;;;;;;5.40;1.45;;;;;;;13.30;67.42;98657.00;5090869;28;20024;-75
2022/07/11 03:48:05;;;;;;;5.25;1.40;;;;;;;13.29;67.35;98662.81;5092086;28;20028;-77
2022/07/11 03:50:30;;;;;;;3.08;1.23;;;;;;;13.28;67.08;98658.44;5091790;28;20020;-77
2022/07/11 03:52:56;;;;;;;3.75;1.50;;;;;;;13.31;67.16;98661.38;5091368;28;20089;-76
2022/07/11 03:55:22;;;;;;;3.75;1.40;;;;;;;13.36;67.05;98658.50;5091503;28;20036;-77
2022/07/11 03:57:48;;;;;;;2.60;1.15;;;;;;;13.40;67.48;98665.03;5091388;28;20040;-75
2022/07/11 04:00:14;;;;;;;6.20;1.45;;;;;;;13.43;67.00;98662.81;5091847;28;20703;-75
2022/07/11 04:02:40;;;;;;;4.80;1.50;;;;;;;13.48;67.38;98663.50;5091282;28;20019;-76
2022/07/11 04:05:06;;;;;;;4.47;1.50;;;;;;;13.49;66.92;98664.34;5092017;28;20535;-76
2022/07/11 04:07:31;;;;;;;2.80;1.20;;;;;;;13.55;66.97;98660.34;5091617;28;20036;-77
2022/07/11 04:09:57;;;;;;;4.32;1.60;;;;;;;13.59;67.01;98660.53;5091342;28;20570;-74
2022/07/11 04:12:23;;;;;;;3.85;1.80;;;;;;;13.62;66.85;98668.16;5090987;28;20032;-74
2022/07/11 04:14:48;;;;;;;4.03;1.45;;;;;;;13.61;67.08;98659.09;5091228;28;20471;-74
2022/07/11 04:17:14;;;;;;;4.75;1.50;;;;;;;13.66;66.85;98658.16;5090935;28;20045;-74
2022/07/11 04:19:40;;;;;;;4.43;1.60;;;;;;;13.68;66.88;98664.97;5091225;28;20557;-75
2022/07/11 04:22:06;;;;;;;4.22;1.25;;;;;;;13.67;66.75;98662.53;5090220;28;20040;-74
2022/07/11 04:24:31;;;;;;;4.65;1.40;;;;;;;13.72;66.91;98662.44;5090992;28;20024;-74
2022/07/11 04:26:57;;;;;;;4.55;1.30;;;;;;;13.81;66.65;98666.06;5091370;28;20032;-76
2022/07/11 04:29:23;;;;;;;11.27;2.15;;;;;;;13.87;66.36;98663.16;5091869;28;20388;-75
2022/07/11 04:31:50;;;;;;;4.55;1.65;;;;;;;13.91;66.37;98662.25;5090595;28;20540;-75
2022/07/11 04:34:16;;;;;;;5.78;1.38;;;;;;;13.92;65.97;98663.03;5090532;28;20028;-75
2022/07/11 04:36:42;;;;;;;3.92;1.20;;;;;;;13.96;66.08;98666.81;5072592;28;20068;-75
2022/07/11 04:39:08;;;;;;;2.60;1.10;;;;;;;13.97;65.88;98663.75;5090704;28;20088;-74
2022/07/11 04:41:35;;;;;;;3.55;1.30;;;;;;;14.01;65.87;98663.13;5090520;28;20132;-76
2022/07/11 04:44:00;;;;;;;6.03;1.50;;;;;;;14.04;65.61;98668.81;5090590;28;20425;-76
2022/07/11 04:46:26;;;;;;;4.00;1.23;;;;;;;14.06;65.39;98665.75;5090441;28;20074;-75
2022/07/11 04:48:52;;;;;;;4.68;1.10;;;;;;;14.08;65.08;98669.81;5090851;28;20043;-75
2022/07/11 04:51:17;;;;;;;4.57;1.20;;;;;;;14.10;65.07;98666.72;5090794;28;20101;-74
2022/07/11 04:53:43;;;;;;;3.78;1.10;;;;;;;14.13;64.78;98669.69;5089941;28;20024;-75
2022/07/11 04:56:09;;;;;;;3.83;1.20;;;;;;;14.16;64.81;98671.00;5089514;28;20139;-74
2022/07/11 04:58:35;;;;;;;3.33;1.20;;;;;;;14.18;64.52;98671.50;5090375;28;20515;-74
2022/07/11 05:01:02;;;;;;;2.92;1.25;;;;;;;14.20;64.42;98677.50;5090346;28;20069;-75
2022/07/11 05:03:28;;;;;;;4.63;1.17;;;;;;;14.24;64.02;98670.25;5090285;28;20024;-74
2022/07/11 05:05:53;;;;;;;4.22;1.30;;;;;;;14.26;64.12;98670.75;5090320;28;20501;-73
2022/07/11 05:08:19;;;;;;;4.82;1.33;;;;;;;14.26;64.20;98681.78;5090307;28;20024;-74
2022/07/11 05:10:44;;;;;;;2.67;0.90;;;;;;;14.32;63.61;98684.41;5090669;28;20031;-74
2022/07/11 05:13:10;;;;;;;4.18;1.30;;;;;;;14.32;63.79;98681.63;5089583;28;20115;-75
2022/07/11 05:15:36;;;;;;;3.45;1.48;;;;;;;14.39;63.55;98682.00;5089953;28;20761;-74
2022/07/11 05:18:02;;;;;;;3.58;1.20;;;;;;;14.42;63.21;98682.19;5090175;28;20016;-75
2022/07/11 05:20:27;;;;;;;5.53;1.48;;;;;;;14.47;63.23;98674.91;5090624;28;20494;-74
2022/07/11 05:22:52;;;;;;;4.65;1.02;;;;;;;14.49;63.30;98673.44;5089858;28;20025;-74
2022/07/11 05:25:18;;;;;;;3.92;1.30;;;;;;;14.54;62.98;98684.34;5090523;28;20111;-74
2022/07/11 05:27:43;;;;;;;2.38;1.20;;;;;;;14.52;62.75;98689.38;5090242;28;20392;-74
2022/07/11 05:30:09;;;;;;;3.97;1.13;;;;;;;14.51;62.58;98684.19;5090432;28;20054;-75
2022/07/11 05:32:35;;;;;;;3.45;1.10;;;;;;;14.52;62.58;98686.59;5089786;28;20103;-76
2022/07/11 05:35:02;;;;;;;4.03;1.23;;;;;;;14.58;62.46;98699.16;5071798;28;20024;-75
2022/07/11 05:37:28;;;;;;;3.88;1.10;;;;;;;14.58;62.46;98692.81;5090060;28;20049;-75
2022/07/11 05:39:53;;;;;;;4.00;1.20;;;;;;;14.61;62.62;98694.94;5090311;28;20034;-75
2022/07/11 05:42:19;;;;;;;4.68;1.20;;;;;;;14.67;62.50;98695.63;5089894;28;20330;-74
2022/07/11 05:44:44;;;;;;;4.10;1.25;;;;;;;14.65;61.50;98693.19;5090434;28;20028;-75
2022/07/11 05:47:10;;;;;;;3.55;1.20;;;;;;;14.63;61.54;98697.38;5090340;28;20121;-74
2022/07/11 05:49:35;;;;;;;5.78;1.60;;;;;;;14.56;61.43;98695.88;5090133;28;20543;-74
2022/07/11 05:52:01;;;;;;;3.28;1.30;;;;;;;14.57;61.51;98694.75;5089986;28;20035;-74
2022/07/11 05:54:28;;;;;;;3.30;1.00;;;;;;;14.54;61.53;98689.06;5090296;28;20357;-74
2022/07/11 05:56:53;;;;;;;2.92;1.30;;;;;;;14.48;61.32;98693.09;5090256;28;20042;-74
2022/07/11 05:59:19;;;;;;;3.30;1.10;;;;;;;14.43;61.53;98691.28;5089344;28;20107;-74
2022/07/11 06:01:44;;;;;;;6.78;1.45;;;;;;;14.41;61.82;98699.88;5089858;28;20035;-74
2022/07/11 06:04:10;;;;;;;3.38;1.42;;;;;;;14.44;61.65;98692.91;5089409;28;20031;-74
2022/07/11 06:06:35;;;;;;;3.78;1.02;;;;;;;14.49;61.88;98690.00;5090209;28;20028;-74
2022/07/11 06:09:01;;;;;;;4.10;1.55;;;;;;;14.57;62.12;98683.72;5094082;28;20411;-74
2022/07/11 06:11:26;;;;;;;5.57;1.30;;;;;;;14.69;61.42;98682.34;5093788;28;20032;-74
2022/07/11 06:13:52;;;;;;;2.78;1.13;;;;;;;14.80;60.54;98691.16;5093877;28;20487;-73
2022/07/11 06:16:18;;;;;;;4.88;1.50;;;;;;;14.90;61.15;98693.63;5094023;28;20373;-74
2022/07/11 06:18:43;;;;;;;3.58;1.15;;;;;;;15.02;60.57;98696.63;5093492;28;20047;-74
2022/07/11 06:21:09;;;;;;;4.00;1.23;;;;;;;15.17;60.88;98694.53;5093848;28;20042;-74
2022/07/11 06:23:35;;;;;;;5.22;1.27;;;;;;;15.27;60.51;98691.47;5093768;28;20480;-74
2022/07/11 06:26:02;;;;;;;5.05;1.30;;;;;;;15.40;59.96;98694.41;5093655;28;20121;-74
2022/07/11 06:28:28;;;;;;;4.03;1.23;;;;;;;15.52;59.42;98699.31;5093766;28;20078;-73
2022/07/11 06:30:53;;;;;;;6.68;1.70;;;;;;;15.66;59.45;98701.91;5093630;28;20031;-74
2022/07/11 06:33:19;;;;;;;3.83;1.08;;;;;;;15.80;59.53;98697.06;5092982;28;20028;-74
2022/07/11 06:35:47;;;;;;;2.88;0.90;;;;;;;15.88;59.16;98692.69;5093394;28;20032;-75
2022/07/11 06:38:14;;;;;;;5.20;1.30;;;;;;;15.90;58.99;98685.69;5093620;28;20081;-75
2022/07/11 06:40:41;;;;;;;6.68;1.65;;;;;;;15.98;58.95;98683.22;5092184;28;20039;-75
2022/07/11 06:43:07;;;;;;;6.03;1.30;;;;;;;16.00;58.22;98684.56;5089137;28;20491;-74
2022/07/11 06:45:33;;;;;;;5.55;1.30;;;;;;;16.00;58.21;98684.56;5091118;28;20024;-74
2022/07/11 06:47:59;;;;;;;4.70;1.40;;;;;;;15.99;57.94;98691.22;5089748;28;20028;-74
2022/07/11 06:50:24;;;;;;;3.15;1.10;;;;;;;15.99;58.36;98701.47;5093162;28;20032;-73
2022/07/11 06:52:50;;;;;;;2.47;0.90;;;;;;;16.02;57.79;98696.09;5092829;28;20073;-73
2022/07/11 06:55:15;;;;;;;4.43;1.00;;;;;;;16.14;57.92;98697.38;5086423;28;20059;-74
2022/07/11 06:57:41;;;;;;;2.85;1.08;;;;;;;16.30;57.43;98698.50;5073520;28;20032;-73
2022/07/11 07:00:08;;;;;;;5.57;1.80;;;;;;;16.49;56.88;98702.88;5091654;28;20035;-74
2022/07/11 07:02:34;;;;;;;3.00;1.30;;;;;;;16.67;56.17;98698.09;5073093;28;20024;-75
2022/07/11 07:05:00;;;;;;;6.07;1.20;;;;;;;16.86;55.98;98694.91;5091099;28;20069;-74
2022/07/11 07:07:26;;;;;;;5.35;1.23;;;;;;;17.01;55.78;98687.19;5091332;28;20035;-75
2022/07/11 07:09:52;;;;;;;3.47;1.35;;;;;;;17.09;55.39;98700.19;5091854;28;20056;-75
2022/07/11 07:12:18;;;;;;;3.72;1.10;;;;;;;17.09;55.25;98700.19;5091036;28;20115;-73
2022/07/11 07:14:44;;;;;;;2.53;1.10;;;;;;;17.05;53.82;98719.47;5091183;28;20498;-73
2022/07/11 07:17:09;;;;;;;4.68;0.90;;;;;;;16.92;53.87;98718.50;5091024;28;20085;-73
2022/07/11 07:19:35;;;;;;;4.28;0.90;;;;;;;16.85;53.82;98718.22;5090481;28;20056;-73
2022/07/11 07:22:00;;;;;;;3.75;0.90;;;;;;;16.77;53.09;98721.81;5069624;28;20028;-74
2022/07/11 07:24:26;;;;;;;2.58;0.70;;;;;;;16.67;53.51;98726.56;5087306;28;20540;-75
2022/07/11 07:26:51;;;;;;;6.95;1.30;;;;;;;16.57;54.10;98740.75;5086971;28;20040;-73
2022/07/11 07:29:16;;;;;;;3.88;1.08;;;;;;;16.44;53.64;98730.72;5091094;28;20024;-75
2022/07/11 07:31:42;;;;;;;5.20;1.38;;;;;;;16.29;54.70;98730.06;5090603;28;20040;-75
2022/07/11 07:34:08;;;;;;;2.90;1.00;;;;;;;16.20;54.79;98735.63;5090779;28;20035;-75
2022/07/11 07:36:34;;;;;;;4.43;1.10;;;;;;;16.06;54.83;98741.34;5090317;28;20035;-77
2022/07/11 07:38:59;;;;;;;6.07;1.05;;;;;;;16.00;55.26;98730.75;5089361;28;20384;-76
2022/07/11 07:41:25;;;;;;;3.78;1.40;;;;;;;16.01;55.73;98738.75;5087541;28;20145;-74
2022/07/11 07:43:51;;;;;;;4.22;1.13;;;;;;;16.09;56.09;98730.75;5087643;28;20012;-73
2022/07/11 07:46:17;;;;;;;4.00;1.10;;;;;;;16.06;55.76;98735.81;5089704;28;20032;-75
2022/07/11 07:48:43;;;;;;;5.57;1.25;;;;;;;16.06;56.02;98738.56;5090167;28;20468;-76
2022/07/11 07:51:08;;;;;;;3.42;0.90;;;;;;;16.12;55.67;98736.44;5090655;28;20036;-75
2022/07/11 07:53:34;;;;;;;3.08;0.90;;;;;;;16.22;55.85;98735.28;5090308;28;20040;-75
2022/07/11 07:56:00;;;;;;;2.75;1.30;;;;;;;16.28;55.67;98734.00;5089895;28;20027;-73
2022/07/11 07:58:25;;;;;;;5.43;1.77;;;;;;;16.37;55.65;98729.25;5090171;28;20029;-76
2022/07/11 08:03:35;;;;;;;2.90;0.80;;;;;;;16.48;54.38;98731.69;5089387;28;20168;-76
2022/07/11 08:06:01;;;;;;;3.03;0.85;;;;;;;16.48;55.05;98734.47;5089095;28;20045;-78
2022/07/11 08:08:26;;;;;;;2.25;0.80;;;;;;;16.48;54.62;98718.66;5089069;28;20089;-76
2022/07/11 08:10:52;;;;;;;2.50;1.00;;;;;;;16.43;55.10;98723.56;5088985;28;20153;-75
2022/07/11 08:13:19;;;;;;;2.65;0.77;;;;;;;16.40;55.33;98724.22;5089220;28;20625;-74
2022/07/11 08:15:45;;;;;;;3.65;0.90;;;;;;;16.35;55.05;98722.41;5089699;28;20035;-78
2022/07/11 08:18:11;;;;;;;7.70;3.55;;;;;;;16.35;54.94;98723.25;5089015;28;20455;-79
2022/07/11 08:20:36;;;;;;;39.28;21.38;;;;;;;16.22;54.86;98718.69;5088384;28;20028;-82
2022/07/11 08:23:06;;;;;;;6.90;3.65;;;;;;;16.15;54.83;98710.06;5082484;28;20032;-74
2022/07/11 08:25:31;;;;;;;6.53;4.30;;;;;;;16.06;54.78;98699.84;5086913;28;20539;-79
2022/07/11 08:27:56;;;;;;;10.20;6.03;;;;;;;16.04;55.18;98704.06;5065320;28;20097;-78
2022/07/11 08:30:22;;;;;;;5.07;1.15;;;;;;;16.09;55.48;98703.09;5071584;28;20039;-78
2022/07/11 08:32:47;;;;;;;3.65;1.33;;;;;;;16.11;54.90;98692.50;5086499;28;20541;-78
2022/07/11 08:35:15;;;;;;;4.45;0.60;;;;;;;16.19;54.39;98691.66;5089782;28;20026;-74
2022/07/11 08:37:41;;;;;;;2.05;0.82;;;;;;;16.29;54.98;98677.50;5088708;28;20039;-74
2022/07/11 08:40:09;;;;;;;2.70;0.90;;;;;;;16.41;54.74;98676.81;5089940;28;20438;-74
2022/07/11 08:42:41;;;;;;;3.92;0.80;;;;;;;16.52;54.67;98677.25;5089307;28;20039;-75
2022/07/11 08:45:07;;;;;;;1.92;0.80;;;;;;;16.65;54.72;98675.44;5089326;28;20468;-76
2022/07/11 08:47:35;;;;;;;4.78;0.95;;;;;;;16.75;54.24;98663.19;5089413;28;20040;-74
2022/07/11 08:50:02;;;;;;;4.43;1.02;;;;;;;16.90;53.82;98667.34;5087402;28;20032;-78
2022/07/11 08:52:28;;;;;;;5.03;1.00;;;;;;;17.10;53.50;98669.41;5090229;28;20078;-76
2022/07/11 08:54:53;;;;;;;4.03;0.93;;;;;;;17.23;52.96;98656.44;5089558;28;20026;-76
2022/07/11 08:57:19;;;;;;;6.15;1.30;;;;;;;17.29;52.25;98659.03;5089151;28;20028;-74
2022/07/11 08:59:47;;;;;;;5.38;3.50;;;;;;;17.38;52.68;98641.16;5088947;28;20024;-75
2022/07/11 09:02:13;;;;;;;3.50;1.50;;;;;;;17.50;51.91;98648.75;5088347;28;20119;-77
2022/07/11 09:04:39;;;;;;;2.30;0.60;;;;;;;17.69;52.24;98641.91;5089784;28;20110;-77
2022/07/11 09:07:06;;;;;;;3.33;0.98;;;;;;;17.89;51.15;98642.22;5090215;28;20044;-79
2022/07/11 09:09:31;;;;;;;2.28;0.80;;;;;;;18.01;50.06;98639.53;5071150;28;20024;-77
2022/07/11 09:11:58;;;;;;;2.67;0.73;;;;;;;18.07;50.02;98635.38;5089327;28;20423;-81
2022/07/11 09:14:31;;;;;;;3.33;0.77;;;;;;;18.20;48.42;98630.69;5088411;28;20026;-73
2022/07/11 09:17:03;;;;;;;3.92;0.80;;;;;;;18.35;48.94;98634.75;5089784;28;20031;-76
2022/07/11 09:19:30;;;;;;;2.05;0.77;;;;;;;18.56;47.84;98631.91;5089101;28;20177;-76
2022/07/11 09:25:39;;;;;;;4.60;1.00;;;;;;;18.67;48.29;98629.47;5090553;28;20094;-80
2022/07/11 09:27:54;;;;;;;7.30;4.25;;;;;;;18.79;48.06;98630.63;5074453;28;20047;-81
2022/07/11 09:30:24;;;;;;;5.28;1.35;;;;;;;18.81;47.59;98615.22;5088952;28;20496;-78
2022/07/11 09:33:03;;;;;;;2.15;1.00;;;;;;;18.91;47.38;98625.09;5088482;28;20064;-78
2022/07/11 09:35:35;;;;;;;2.50;0.80;;;;;;;19.05;46.50;98619.19;5081936;28;20362;-75
2022/07/11 09:38:08;;;;;;;3.30;0.77;;;;;;;19.29;46.27;98611.97;5085988;28;20032;-77
2022/07/11 09:40:35;;;;;;;2.47;0.70;;;;;;;19.56;46.93;98618.72;5088243;28;20023;-77
2022/07/11 09:43:01;;;;;;;2.60;0.85;;;;;;;19.78;44.95;98620.16;5087626;28;20047;-81
2022/07/11 09:45:29;;;;;;;1.65;0.60;;;;;;;19.91;44.69;98615.38;5089277;28;20031;-74
2022/07/11 09:47:57;;;;;;;3.65;1.30;;;;;;;20.00;45.06;98628.34;5086961;28;20089;-75
2022/07/11 09:50:30;;;;;;;3.25;0.80;;;;;;;19.93;44.67;98626.16;5087757;28;20059;-73
2022/07/11 09:53:01;;;;;;;6.53;2.30;;;;;;;19.86;44.75;98634.28;5086495;28;20114;-75
2022/07/11 09:55:28;;;;;;;4.50;1.00;;;;;;;19.75;43.52;98633.97;5087731;28;20028;-76
2022/07/11 09:57:54;;;;;;;3.22;0.77;;;;;;;19.54;44.57;98626.63;5088139;28;20097;-74
2022/07/11 10:00:19;;;;;;;1.38;0.50;;;;;;;19.34;43.80;98643.13;5088401;28;20488;-75
2022/07/11 10:02:45;;;;;;;2.10;0.60;;;;;;;19.08;43.83;98637.13;5088280;28;20396;-75
2022/07/11 10:05:11;;;;;;;2.17;0.60;;;;;;;18.84;44.33;98645.09;5088010;28;20107;-73
2022/07/11 10:07:36;;;;;;;1.90;0.52;;;;;;;18.65;44.50;98654.00;5085754;28;20032;-76
2022/07/11 10:10:05;;;;;;;3.33;0.60;;;;;;;18.48;45.12;98679.22;5088436;28;20028;-72
2022/07/11 10:12:32;;;;;;;3.53;0.45;;;;;;;18.18;46.79;98684.91;5088350;28;20020;-78
2022/07/11 10:15:03;;;;;;;2.22;0.60;;;;;;;17.75;48.46;98689.66;5087512;28;20480;-78
2022/07/11 10:18:05;;;;;;;2.20;0.57;;;;;;;17.32;49.19;98691.63;5089547;28;20063;-78
2022/07/11 10:20:43;;;;;;;2.45;0.50;;;;;;;17.07;49.92;98696.94;5088067;28;20058;-77
2022/07/11 10:23:28;;;;;;;3.33;0.40;;;;;;;16.88;50.43;98709.25;5089307;28;20020;-76
2022/07/11 10:26:15;;;;;;;2.17;0.60;;;;;;;16.70;51.43;98715.97;5089686;28;20032;-76
2022/07/11 10:28:51;;;;;;;1.02;0.43;;;;;;;16.64;51.97;98715.34;5088971;28;20028;-78
2022/07/11 10:31:24;;;;;;;2.55;0.40;;;;;;;16.65;51.85;98700.38;5084532;28;20032;-74
2022/07/11 10:34:07;;;;;;;1.60;0.50;;;;;;;16.75;52.05;98686.13;5089134;28;20020;-77
2022/07/11 10:36:38;;;;;;;1.23;0.40;;;;;;;16.95;52.18;98694.88;5088105;28;20039;-76
2022/07/11 10:39:24;;;;;;;2.35;0.40;;;;;;;17.10;52.24;98688.78;5088830;28;20027;-76
2022/07/11 10:41:51;;;;;;;3.17;0.60;;;;;;;17.38;51.94;98679.16;5088262;28;20062;-74
2022/07/11 10:44:17;;;;;;;1.40;0.30;;;;;;;17.57;51.35;98667.59;5069810;28;20039;-74
2022/07/11 10:46:43;;;;;;;0.90;0.30;;;;;;;17.66;51.29;98667.56;5087949;28;20036;-73
2022/07/11 10:49:21;;;;;;;1.13;0.40;;;;;;;17.75;51.29;98662.72;5088135;28;20036;-76
2022/07/11 10:51:49;;;;;;;0.55;0.32;;;;;;;17.84;51.03;98677.34;5085440;28;20093;-75
2022/07/11 10:54:48;;;;;;;0.80;0.30;;;;;;;17.98;50.52;98679.81;5088786;28;20020;-76
2022/07/11 10:57:41;;;;;;;1.40;0.50;;;;;;;18.12;50.76;98678.75;5090918;28;20145;-76
2022/07/11 11:00:10;;;;;;;1.15;0.50;;;;;;;18.29;50.06;98675.81;5090299;28;20028;-74
2022/07/11 11:03:03;;;;;;;0.30;0.20;;;;;;;18.54;50.11;98680.63;5088324;28;20024;-75
2022/07/11 11:05:49;;;;;;;1.45;0.50;;;;;;;18.74;49.60;98678.91;5091033;28;20048;-76
2022/07/11 11:08:34;;;;;;;1.83;0.40;;;;;;;18.87;49.49;98688.06;5090933;28;20020;-76
2022/07/11 11:11:03;;;;;;;2.65;0.60;;;;;;;18.91;48.99;98683.44;5090738;28;20019;-75
2022/07/11 11:13:30;;;;;;;2.93;0.80;;;;;;;18.92;48.41;98681.47;5091256;28;20039;-78
2022/07/11 11:16:00;;;;;;;1.52;0.52;;;;;;;18.93;48.32;98685.88;5091395;28;20028;-77
2022/07/11 11:18:25;;;;;;;1.23;0.40;;;;;;;18.96;48.33;98694.34;5090934;28;20039;-76
2022/07/11 11:21:04;;;;;;;0.57;0.30;;;;;;;18.86;48.55;98697.56;5073060;28;20024;-76
2022/07/11 11:23:35;;;;;;;1.00;0.30;;;;;;;18.75;48.73;98694.41;5090091;28;20028;-76
2022/07/11 11:26:04;;;;;;;1.42;0.30;;;;;;;18.71;49.22;98682.38;5091287;28;20486;-79
2022/07/11 11:28:29;;;;;;;1.00;0.40;;;;;;;18.79;49.74;98677.88;5091066;28;20102;-76
2022/07/11 11:30:57;;;;;;;1.27;0.40;;;;;;;18.90;50.50;98684.59;5072837;28;20475;-79
2022/07/11 11:33:26;;;;;;;1.15;0.50;;;;;;;18.85;50.40;98677.28;5091642;28;20051;-78
2022/07/11 11:36:02;;;;;;;0.98;0.30;;;;;;;18.77;50.60;98680.19;5072119;28;20384;-78
2022/07/11 11:38:29;;;;;;;1.63;0.30;;;;;;;18.80;50.66;98669.19;5090974;28;20028;-75
2022/07/11 11:40:55;;;;;;;1.25;0.30;;;;;;;19.12;51.53;98676.97;5091072;28;20039;-79